createdAt,value
2023-05-14T00:00:29.428Z,3.72
2023-05-14T00:02:56.434Z,4.03
2023-05-14T00:05:23.363Z,3.70
2023-05-14T00:07:50.084Z,4.50
2023-05-14T00:10:19.120Z,4.32
2023-05-14T00:12:45.968Z,4.65
2023-05-14T00:15:12.726Z,4.97
2023-05-14T00:17:39.437Z,4.28
2023-05-14T00:20:09.411Z,4.57
2023-05-14T00:22:37.274Z,4.60
2023-05-14T00:25:04.609Z,4.88
2023-05-14T00:27:31.258Z,6.05
2023-05-14T00:29:57.898Z,5.57
2023-05-14T00:32:24.961Z,7.40
2023-05-14T00:34:51.616Z,5.45
2023-05-14T00:37:18.215Z,5.28
2023-05-14T00:39:44.908Z,8.32
2023-05-14T00:42:11.625Z,8.40
2023-05-14T00:44:38.341Z,6.43
2023-05-14T00:47:05.482Z,7.45
2023-05-14T00:49:32.430Z,6.68
2023-05-14T00:52:00.574Z,9.63
2023-05-14T00:54:28.425Z,4.10
2023-05-14T00:56:55.331Z,6.07
2023-05-14T00:59:22.005Z,6.07
2023-05-14T01:01:48.672Z,5.88
2023-05-14T01:04:15.972Z,5.35
2023-05-14T01:06:48.812Z,3.70
2023-05-14T01:09:25.864Z,4.25
2023-05-14T01:12:09.036Z,4.70
2023-05-14T01:14:54.336Z,4.43
2023-05-14T01:17:23.020Z,4.07
2023-05-14T01:19:50.461Z,4.07
2023-05-14T01:22:17.131Z,4.43
2023-05-14T01:24:43.923Z,5.53
2023-05-14T01:27:30.249Z,5.82
2023-05-14T01:30:15.841Z,5.30
2023-05-14T01:32:45.255Z,5.90
2023-05-14T01:35:13.046Z,5.82
2023-05-14T01:37:41.241Z,4.38
2023-05-14T01:40:09.840Z,4.32
2023-05-14T01:42:37.634Z,5.10
2023-05-14T01:45:05.168Z,5.07
2023-05-14T01:47:31.976Z,4.63
2023-05-14T01:49:58.734Z,4.28
2023-05-14T01:52:25.448Z,4.95
2023-05-14T01:54:52.148Z,4.70
2023-05-14T01:57:20.128Z,5.18
2023-05-14T01:59:46.881Z,4.70
2023-05-14T02:02:13.529Z,3.47
2023-05-14T02:04:40.316Z,4.28
2023-05-14T02:07:06.956Z,3.97
2023-05-14T02:09:33.721Z,4.95
2023-05-14T02:12:00.432Z,4.10
2023-05-14T02:14:27.058Z,4.00
2023-05-14T02:16:53.809Z,2.95
2023-05-14T02:19:20.572Z,4.35
2023-05-14T02:21:48.138Z,3.67
2023-05-14T02:24:14.993Z,3.15
2023-05-14T02:26:42.298Z,4.35
2023-05-14T02:29:09.197Z,3.03
2023-05-14T02:31:36.013Z,3.80
2023-05-14T02:34:03.974Z,3.20
2023-05-14T02:36:30.887Z,5.03
2023-05-14T02:38:59.278Z,3.42
2023-05-14T02:41:25.931Z,4.15
2023-05-14T02:43:53.526Z,6.20
2023-05-14T02:46:20.365Z,6.05
2023-05-14T02:48:46.995Z,4.18
2023-05-14T02:51:13.685Z,5.00
2023-05-14T02:53:40.572Z,5.35
2023-05-14T02:56:08.278Z,6.00
2023-05-14T02:58:35.004Z,5.05
2023-05-14T03:01:01.832Z,4.72
2023-05-14T03:03:30.104Z,3.53
2023-05-14T03:05:57.373Z,6.18
2023-05-14T03:08:24.159Z,3.40
2023-05-14T03:10:50.993Z,3.15
2023-05-14T03:13:20.059Z,4.85
2023-05-14T03:15:47.597Z,4.00
2023-05-14T03:18:15.189Z,3.20
2023-05-14T03:20:42.198Z,5.22
2023-05-14T03:23:08.892Z,3.83
2023-05-14T03:25:35.604Z,3.28
2023-05-14T03:28:03.645Z,3.85
2023-05-14T03:30:30.692Z,3.67
2023-05-14T03:32:57.588Z,3.92
2023-05-14T03:35:24.416Z,4.28
2023-05-14T03:37:52.953Z,3.58
2023-05-14T03:40:19.609Z,3.70
2023-05-14T03:42:46.460Z,4.60
2023-05-14T03:45:13.098Z,4.85
2023-05-14T03:47:39.797Z,4.10
2023-05-14T03:50:07.509Z,4.57
2023-05-14T03:52:34.255Z,4.18
2023-05-14T03:55:00.912Z,3.97
2023-05-14T03:57:27.523Z,4.10
2023-05-14T03:59:54.130Z,5.00
2023-05-14T04:02:20.802Z,4.70
2023-05-14T04:04:47.541Z,4.10
2023-05-14T04:07:14.483Z,4.32
2023-05-14T04:09:41.146Z,6.47
2023-05-14T04:12:08.272Z,5.35
2023-05-14T04:14:34.933Z,4.22
2023-05-14T04:17:01.561Z,4.85
2023-05-14T04:19:28.341Z,4.47
2023-05-14T04:21:55.177Z,4.20
2023-05-14T04:24:24.484Z,5.63
2023-05-14T04:26:51.198Z,4.45
2023-05-14T04:29:17.829Z,3.33
2023-05-14T04:31:44.760Z,4.13
2023-05-14T04:34:11.597Z,5.35
2023-05-14T04:36:38.259Z,4.35
2023-05-14T04:39:06.111Z,9.40
2023-05-14T04:41:32.872Z,8.57
2023-05-14T04:44:01.592Z,8.27
2023-05-14T04:46:28.773Z,8.52
2023-05-14T04:48:56.588Z,8.93
2023-05-14T04:51:24.041Z,8.63
2023-05-14T04:53:50.697Z,9.95
2023-05-14T04:56:17.329Z,8.40
2023-05-14T04:58:44.049Z,9.60
2023-05-14T05:01:10.705Z,8.82
2023-05-14T05:03:37.438Z,9.65
2023-05-14T05:06:04.370Z,9.63
2023-05-14T05:08:30.986Z,8.48
2023-05-14T05:10:57.594Z,9.73
2023-05-14T05:13:24.239Z,7.13
2023-05-14T05:15:51.236Z,7.60
2023-05-14T05:18:17.871Z,9.82
2023-05-14T05:20:44.503Z,7.82
2023-05-14T05:23:11.243Z,8.23
2023-05-14T05:25:37.937Z,6.43
2023-05-14T05:28:04.765Z,8.02
2023-05-14T05:30:31.510Z,4.88
2023-05-14T05:32:58.449Z,7.20
2023-05-14T05:35:25.238Z,4.65
2023-05-14T05:37:51.919Z,4.80
2023-05-14T05:40:19.172Z,4.13
2023-05-14T05:42:45.922Z,4.60
2023-05-14T05:45:12.617Z,4.70
2023-05-14T05:47:39.320Z,3.92
2023-05-14T05:50:07.660Z,4.57
2023-05-14T05:52:34.453Z,4.72
2023-05-14T05:55:01.167Z,4.43
2023-05-14T05:57:27.956Z,4.65
2023-05-14T05:59:54.692Z,4.95
2023-05-14T06:02:21.592Z,5.07
2023-05-14T06:04:48.762Z,4.90
2023-05-14T06:07:15.496Z,4.38
2023-05-14T06:09:42.269Z,3.72
2023-05-14T06:12:09.213Z,3.83
2023-05-14T06:14:35.865Z,4.95
2023-05-14T06:17:02.624Z,4.07
2023-05-14T06:19:29.408Z,4.00
2023-05-14T06:21:56.143Z,3.67
2023-05-14T06:24:22.726Z,3.97
2023-05-14T06:26:49.501Z,3.40
2023-05-14T06:29:16.173Z,3.97
2023-05-14T06:31:43.004Z,4.28
2023-05-14T06:34:09.649Z,4.35
2023-05-14T06:36:36.309Z,4.03
2023-05-14T06:39:03.712Z,3.85
2023-05-14T06:41:30.451Z,4.07
2023-05-14T06:43:57.809Z,3.78
2023-05-14T06:46:24.457Z,3.63
2023-05-14T06:48:51.169Z,3.80
2023-05-14T06:51:17.831Z,3.97
2023-05-14T06:53:44.555Z,4.82
2023-05-14T06:56:11.431Z,3.88
2023-05-14T06:58:38.093Z,4.45
2023-05-14T07:01:05.189Z,4.13
2023-05-14T07:03:32.808Z,4.13
2023-05-14T07:05:59.449Z,4.35
2023-05-14T07:08:26.191Z,4.15
2023-05-14T07:10:52.867Z,4.45
2023-05-14T07:13:19.530Z,3.83
2023-05-14T07:15:46.148Z,3.50
2023-05-14T07:18:12.792Z,4.05
2023-05-14T07:20:39.621Z,4.03
2023-05-14T07:23:06.341Z,3.90
2023-05-14T07:25:32.990Z,4.18
2023-05-14T07:27:59.632Z,3.92
2023-05-14T07:30:26.465Z,4.65
2023-05-14T07:32:53.334Z,4.05
2023-05-14T07:35:20.279Z,3.72
2023-05-14T07:37:48.913Z,4.20
2023-05-14T07:40:15.879Z,3.83
2023-05-14T07:42:42.527Z,3.63
2023-05-14T07:45:10.045Z,4.85
2023-05-14T07:47:36.798Z,5.10
2023-05-14T07:50:03.682Z,4.15
2023-05-14T07:52:30.415Z,3.92
2023-05-14T07:54:57.131Z,4.05
2023-05-14T07:57:23.757Z,6.20
2023-05-14T07:59:50.519Z,4.85
2023-05-14T08:02:17.860Z,4.68
2023-05-14T08:04:45.096Z,4.13
2023-05-14T08:07:12.004Z,4.03
2023-05-14T08:09:38.846Z,4.30
2023-05-14T08:12:06.282Z,4.50
2023-05-14T08:14:32.973Z,3.83
2023-05-14T08:16:59.687Z,3.60
2023-05-14T08:19:27.563Z,3.88
2023-05-14T08:21:54.385Z,3.70
2023-05-14T08:24:21.483Z,3.75
2023-05-14T08:26:48.156Z,3.42
2023-05-14T08:29:16.596Z,2.78
2023-05-14T08:31:43.809Z,3.33
2023-05-14T08:34:10.934Z,3.22
2023-05-14T08:36:38.887Z,3.50
2023-05-14T08:39:07.870Z,3.20
2023-05-14T08:41:35.103Z,3.40
2023-05-14T08:44:21.442Z,3.40
2023-05-14T08:46:49.876Z,3.78
2023-05-14T08:49:41.855Z,3.42
2023-05-14T08:52:12.056Z,3.80
2023-05-14T08:54:40.420Z,3.50
2023-05-14T08:57:09.787Z,2.30
2023-05-14T08:59:36.713Z,2.70
2023-05-14T09:02:06.530Z,3.20
2023-05-14T09:04:33.919Z,2.92
2023-05-14T09:07:02.127Z,2.90
2023-05-14T09:09:28.995Z,2.90
2023-05-14T09:11:56.101Z,2.80
2023-05-14T09:14:23.479Z,2.55
2023-05-14T09:16:51.617Z,2.28
2023-05-14T09:19:19.501Z,2.22
2023-05-14T09:21:47.585Z,2.90
2023-05-14T09:24:22.031Z,4.13
2023-05-14T09:26:57.289Z,2.03
2023-05-14T09:29:28.864Z,3.22
2023-05-14T09:31:56.822Z,2.58
2023-05-14T09:34:25.412Z,2.35
2023-05-14T09:37:02.742Z,2.80
2023-05-14T09:39:30.126Z,2.67
2023-05-14T09:41:57.824Z,2.65
2023-05-14T09:44:25.076Z,2.78
2023-05-14T09:46:52.978Z,2.40
2023-05-14T09:49:20.208Z,3.72
2023-05-14T09:51:47.539Z,2.70
2023-05-14T09:54:14.411Z,3.60
2023-05-14T09:56:49.257Z,3.03
2023-05-14T10:01:44.011Z,3.05
2023-05-14T10:04:11.549Z,3.08
2023-05-14T10:06:39.140Z,3.80
2023-05-14T10:09:14.509Z,3.53
2023-05-14T10:11:44.300Z,3.92
2023-05-14T10:14:19.354Z,4.15
2023-05-14T10:16:51.677Z,3.10
2023-05-14T10:19:21.051Z,3.60
2023-05-14T10:21:57.015Z,4.35
2023-05-14T10:24:24.965Z,4.50
2023-05-14T10:26:51.852Z,3.67
2023-05-14T10:36:05.097Z,3.72
2023-05-14T10:38:37.034Z,3.47
2023-05-14T10:41:13.808Z,3.70
2023-05-14T10:43:41.866Z,3.50
2023-05-14T10:46:13.738Z,3.83
2023-05-14T10:48:44.006Z,3.63
2023-05-14T10:51:11.564Z,3.63
2023-05-14T10:53:41.828Z,3.35
2023-05-14T10:56:14.903Z,3.95
2023-05-14T10:58:52.516Z,3.85
2023-05-14T11:01:19.192Z,4.35
2023-05-14T11:03:47.004Z,3.78
2023-05-14T11:06:15.603Z,4.53
2023-05-14T11:08:42.954Z,3.53
2023-05-14T11:11:10.285Z,4.20
2023-05-14T11:13:36.978Z,3.70
2023-05-14T11:16:11.949Z,3.58
2023-05-14T11:18:53.848Z,3.65
2023-05-14T11:21:20.771Z,3.40
2023-05-14T11:23:47.446Z,3.72
2023-05-14T11:26:14.049Z,4.05
2023-05-14T11:28:40.948Z,3.92
2023-05-14T11:31:07.949Z,4.60
2023-05-14T11:33:36.152Z,4.00
2023-05-14T11:36:02.929Z,3.78
2023-05-14T11:38:29.582Z,4.45
2023-05-14T11:40:57.580Z,3.78
2023-05-14T11:43:24.695Z,4.10
2023-05-14T11:45:52.772Z,3.83
2023-05-14T11:48:20.470Z,3.88
2023-05-14T11:50:52.024Z,4.20
2023-05-14T11:53:20.232Z,3.88
2023-05-14T11:55:47.769Z,3.80
2023-05-14T11:58:15.905Z,3.78
2023-05-14T12:00:45.435Z,3.63
2023-05-14T12:03:12.601Z,3.70
2023-05-14T12:05:39.748Z,4.22
2023-05-14T12:08:29.955Z,4.00
2023-05-14T12:10:58.822Z,4.47
2023-05-14T12:13:29.913Z,4.20
2023-05-14T12:15:58.315Z,3.75
2023-05-14T12:18:26.175Z,3.28
2023-05-14T12:20:53.095Z,3.85
2023-05-14T12:23:46.023Z,3.38
2023-05-14T12:26:12.732Z,3.83
2023-05-14T12:28:43.514Z,4.07
2023-05-14T12:31:10.524Z,4.22
2023-05-14T12:33:37.294Z,4.60
2023-05-14T12:36:20.633Z,3.75
2023-05-14T12:38:49.973Z,3.47
2023-05-14T12:41:17.917Z,3.70
2023-05-14T12:43:45.158Z,3.78
2023-05-14T12:46:11.834Z,4.60
2023-05-14T12:48:38.662Z,3.42
2023-05-14T12:51:05.666Z,3.53
2023-05-14T12:53:32.325Z,3.67
2023-05-14T12:55:59.149Z,3.67
2023-05-14T12:58:25.766Z,3.30
2023-05-14T13:00:52.515Z,4.10
2023-05-14T13:03:19.282Z,3.40
2023-05-14T13:05:45.951Z,4.15
2023-05-14T13:08:14.977Z,4.05
2023-05-14T13:10:41.783Z,3.60
2023-05-14T13:13:08.565Z,3.97
2023-05-14T13:15:36.393Z,3.80
2023-05-14T13:18:03.250Z,3.83
2023-05-14T13:20:32.507Z,3.97
2023-05-14T13:22:59.164Z,3.40
2023-05-14T13:25:26.235Z,3.40
2023-05-14T13:27:53.108Z,3.78
2023-05-14T13:30:20.221Z,3.17
2023-05-14T13:32:47.114Z,3.83
2023-05-14T13:35:14.381Z,3.80
2023-05-14T13:37:43.857Z,3.90
2023-05-14T13:40:11.090Z,3.70
2023-05-14T13:42:39.723Z,3.40
2023-05-14T13:45:07.104Z,3.70
2023-05-14T13:47:33.967Z,4.10
2023-05-14T13:50:00.622Z,3.83
2023-05-14T13:52:27.378Z,4.18
2023-05-14T13:54:54.215Z,3.78
2023-05-14T13:57:22.059Z,4.07
2023-05-14T13:59:49.014Z,3.00
2023-05-14T14:02:15.725Z,3.15
2023-05-14T14:04:42.415Z,2.92
2023-05-14T14:07:09.293Z,3.78
2023-05-14T14:09:36.988Z,4.03
2023-05-14T14:12:06.309Z,3.92
2023-05-14T14:14:33.070Z,3.70
2023-05-14T14:16:59.729Z,4.13
2023-05-14T14:19:26.323Z,3.50
2023-05-14T14:21:53.313Z,3.33
2023-05-14T14:24:20.377Z,3.55
2023-05-14T14:26:47.089Z,4.03
2023-05-14T14:29:13.872Z,5.13
2023-05-14T14:31:40.748Z,3.78
2023-05-14T14:34:07.524Z,3.95
2023-05-14T14:36:34.294Z,3.75
2023-05-14T14:39:01.086Z,3.22
2023-05-14T14:41:27.848Z,3.55
2023-05-14T14:43:54.466Z,3.65
2023-05-14T14:46:21.236Z,3.55
2023-05-14T14:48:47.987Z,3.78
2023-05-14T14:51:14.683Z,4.05
2023-05-14T14:53:41.419Z,3.50
2023-05-14T14:56:08.241Z,3.35
2023-05-14T14:58:35.023Z,3.50
2023-05-14T15:01:01.872Z,3.58
2023-05-14T15:03:29.077Z,3.65
2023-05-14T15:05:55.993Z,2.95
2023-05-14T15:08:27.494Z,3.45
2023-05-14T15:10:55.585Z,3.42
2023-05-14T15:13:22.244Z,3.10
2023-05-14T15:15:50.941Z,3.13
2023-05-14T15:18:17.657Z,4.13
2023-05-14T15:20:44.662Z,3.33
2023-05-14T15:23:11.743Z,3.50
2023-05-14T15:25:38.498Z,3.42
2023-05-14T15:28:06.444Z,3.65
2023-05-14T15:30:33.520Z,4.80
2023-05-14T15:33:00.204Z,3.80
2023-05-14T15:35:26.960Z,3.80
2023-05-14T15:37:56.100Z,4.40
2023-05-14T15:40:23.299Z,4.43
2023-05-14T15:42:50.224Z,3.40
2023-05-14T15:45:16.897Z,3.80
2023-05-14T15:47:45.232Z,3.30
2023-05-14T15:50:12.312Z,3.75
2023-05-14T15:52:39.462Z,3.88
2023-05-14T15:55:06.667Z,3.78
2023-05-14T15:57:33.629Z,4.22
2023-05-14T16:00:00.447Z,3.67
2023-05-14T16:02:30.536Z,3.35
2023-05-14T16:04:57.499Z,3.53
2023-05-14T16:07:24.317Z,4.07
2023-05-14T16:09:51.185Z,4.38
2023-05-14T16:12:18.117Z,3.50
2023-05-14T16:14:45.466Z,4.97
2023-05-14T16:17:12.584Z,3.88
2023-05-14T16:19:39.696Z,4.97
2023-05-14T16:22:06.616Z,4.18
2023-05-14T16:24:33.355Z,3.53
2023-05-14T16:27:00.886Z,4.38
2023-05-14T16:29:27.908Z,5.20
2023-05-14T16:31:54.879Z,4.47
2023-05-14T16:34:21.725Z,4.82
2023-05-14T16:36:48.557Z,4.78
2023-05-14T16:39:15.203Z,4.85
2023-05-14T16:41:41.881Z,4.90
2023-05-14T16:44:08.585Z,5.65
2023-05-14T16:46:35.375Z,5.13
2023-05-14T16:49:02.634Z,5.28
2023-05-14T16:51:29.421Z,5.35
2023-05-14T16:53:56.357Z,4.93
2023-05-14T16:56:23.210Z,4.60
2023-05-14T16:58:49.901Z,4.63
2023-05-14T17:01:16.650Z,5.03
2023-05-14T17:03:44.865Z,4.85
2023-05-14T17:06:11.797Z,7.18
2023-05-14T17:08:38.509Z,15.15
2023-05-14T17:11:06.053Z,20.00
2023-05-14T17:13:33.248Z,13.60
2023-05-14T17:16:00.765Z,8.38
2023-05-14T17:18:27.855Z,21.40
2023-05-14T17:20:54.561Z,13.10
2023-05-14T17:23:21.329Z,6.38
2023-05-14T17:25:48.083Z,12.75
2023-05-14T17:28:14.801Z,11.73
2023-05-14T17:30:41.608Z,20.17
2023-05-14T17:33:08.401Z,8.90
2023-05-14T17:35:36.455Z,6.53
2023-05-14T17:38:03.691Z,6.70
2023-05-14T17:40:30.506Z,7.97
2023-05-14T17:42:57.265Z,7.10
2023-05-14T17:45:24.275Z,7.90
2023-05-14T17:47:51.507Z,6.75
2023-05-14T17:50:19.094Z,7.40
2023-05-14T17:52:46.251Z,6.97
2023-05-14T17:55:13.194Z,7.32
2023-05-14T17:57:40.106Z,8.68
2023-05-14T18:00:07.735Z,8.77
2023-05-14T18:02:35.076Z,9.52
2023-05-14T18:05:02.917Z,9.80
2023-05-14T18:07:30.406Z,9.88
2023-05-14T18:09:57.292Z,9.63
2023-05-14T18:12:25.858Z,8.82
2023-05-14T18:14:52.556Z,9.60
2023-05-14T18:17:19.268Z,8.85
2023-05-14T18:19:45.996Z,9.38
2023-05-14T18:22:12.941Z,9.00
2023-05-14T18:24:39.645Z,9.75
2023-05-14T18:27:06.468Z,11.80
2023-05-14T18:29:33.130Z,11.25
2023-05-14T18:31:59.798Z,10.07
2023-05-14T18:34:26.651Z,12.05
2023-05-14T18:36:53.460Z,11.45
2023-05-14T18:39:20.210Z,10.85
2023-05-14T18:41:46.949Z,11.38
2023-05-14T18:44:13.690Z,16.08
2023-05-14T18:46:40.563Z,11.35
2023-05-14T18:49:07.293Z,16.00
2023-05-14T18:51:33.953Z,28.40
2023-05-14T18:54:00.736Z,16.58
2023-05-14T18:56:27.394Z,14.25
2023-05-14T18:58:54.480Z,34.97
2023-05-14T19:01:21.456Z,29.50
2023-05-14T19:03:48.315Z,22.13
2023-05-14T19:06:15.172Z,18.42
2023-05-14T19:08:41.855Z,23.40
2023-05-14T19:11:08.643Z,19.25
2023-05-14T19:13:35.244Z,15.27
2023-05-14T19:16:01.976Z,15.60
2023-05-14T19:18:41.988Z,17.38
2023-05-14T19:21:08.798Z,15.27
2023-05-14T19:23:35.705Z,15.13
2023-05-14T19:26:02.338Z,16.83
2023-05-14T19:28:28.956Z,14.93
2023-05-14T19:30:57.384Z,13.85
2023-05-14T19:33:24.395Z,12.00
2023-05-14T19:35:51.415Z,11.88
2023-05-14T19:38:19.245Z,14.52
2023-05-14T19:40:45.931Z,12.18
2023-05-14T19:43:12.644Z,11.25
2023-05-14T19:45:39.464Z,10.52
2023-05-14T19:48:06.884Z,11.27
2023-05-14T19:50:33.874Z,11.93
2023-05-14T19:53:01.209Z,11.38
2023-05-14T19:55:27.905Z,10.18
2023-05-14T19:57:54.529Z,13.65
2023-05-14T20:00:22.482Z,14.15
2023-05-14T20:02:49.292Z,14.55
2023-05-14T20:05:16.743Z,15.00
2023-05-14T20:07:43.880Z,17.80
2023-05-14T20:10:10.955Z,34.53
2023-05-14T20:12:37.629Z,17.35
2023-05-14T20:15:04.573Z,20.48
2023-05-14T20:17:31.294Z,16.40
2023-05-14T20:20:01.580Z,17.83
2023-05-14T20:22:28.325Z,14.05
2023-05-14T20:24:55.035Z,12.73
2023-05-14T20:27:22.208Z,12.63
2023-05-14T20:29:51.465Z,13.02
2023-05-14T20:32:18.216Z,12.45
2023-05-14T20:34:44.957Z,9.40
2023-05-14T20:37:11.972Z,11.52
2023-05-14T20:39:38.621Z,10.85
2023-05-14T20:42:05.698Z,11.52
2023-05-14T20:44:32.467Z,8.93
2023-05-14T20:46:59.163Z,9.60
2023-05-14T20:49:25.999Z,9.95
2023-05-14T20:51:52.761Z,9.13
2023-05-14T20:54:19.352Z,9.90
2023-05-14T20:56:45.979Z,10.13
2023-05-14T20:59:12.646Z,12.48
2023-05-14T21:01:39.373Z,10.23
2023-05-14T21:04:06.327Z,11.57
2023-05-14T21:06:33.121Z,9.93
2023-05-14T21:08:59.836Z,11.85
2023-05-14T21:11:26.510Z,15.15
2023-05-14T21:13:53.181Z,14.05
2023-05-14T21:16:20.303Z,11.07
2023-05-14T21:18:47.163Z,10.52
2023-05-14T21:21:13.864Z,9.95
2023-05-14T21:23:40.594Z,10.60
2023-05-14T21:26:07.236Z,9.98
2023-05-14T21:28:33.919Z,12.30
2023-05-14T21:31:00.552Z,8.52
2023-05-14T21:33:27.165Z,9.13
2023-05-14T21:35:54.061Z,11.88
2023-05-14T21:38:20.839Z,14.13
2023-05-14T21:40:47.461Z,10.38
2023-05-14T21:43:14.258Z,7.75
2023-05-14T21:45:41.329Z,6.15
2023-05-14T21:48:08.120Z,8.02
2023-05-14T21:50:34.974Z,7.40
2023-05-14T21:53:01.661Z,7.00
2023-05-14T21:55:28.541Z,6.85
2023-05-14T21:57:55.180Z,8.50
2023-05-14T22:00:25.211Z,11.57
2023-05-14T22:02:55.267Z,11.57
2023-05-14T22:05:22.464Z,13.02
2023-05-14T22:07:49.346Z,14.88
2023-05-14T22:10:16.833Z,13.88
2023-05-14T22:12:44.621Z,14.00
2023-05-14T22:15:12.389Z,12.77
2023-05-14T22:17:39.259Z,19.48
2023-05-14T22:20:06.880Z,16.13
2023-05-14T22:22:34.278Z,19.88
2023-05-14T22:25:01.173Z,17.77
2023-05-14T22:27:27.971Z,21.20
2023-05-14T22:29:55.356Z,21.83
2023-05-14T22:32:22.153Z,21.17
2023-05-14T22:34:48.967Z,19.90
2023-05-14T22:37:15.805Z,17.95
2023-05-14T22:39:42.974Z,19.02
2023-05-14T22:42:09.760Z,15.68
2023-05-14T22:44:37.168Z,14.52
2023-05-14T22:47:07.415Z,15.30
2023-05-14T22:49:34.091Z,13.85
2023-05-14T22:52:01.450Z,14.18
2023-05-14T22:54:28.222Z,13.23
2023-05-14T22:56:54.842Z,13.85
2023-05-14T22:59:23.591Z,15.05
2023-05-14T23:01:50.826Z,13.88
2023-05-14T23:04:17.613Z,13.15
2023-05-14T23:06:44.577Z,12.00
2023-05-14T23:09:11.245Z,10.38
2023-05-14T23:11:37.996Z,11.07
2023-05-14T23:14:04.724Z,10.70
2023-05-14T23:16:31.999Z,9.52
2023-05-14T23:18:58.874Z,9.65
2023-05-14T23:21:25.749Z,10.88
2023-05-14T23:23:52.540Z,11.02
2023-05-14T23:26:19.214Z,10.23
2023-05-14T23:28:47.402Z,9.45
2023-05-14T23:31:14.103Z,10.07
2023-05-14T23:33:40.927Z,10.32
2023-05-14T23:36:08.142Z,9.20
2023-05-14T23:38:34.880Z,8.90
2023-05-14T23:41:01.600Z,9.82
2023-05-14T23:43:28.441Z,8.45
2023-05-14T23:45:55.344Z,8.65
2023-05-14T23:48:22.071Z,10.18
2023-05-14T23:50:48.732Z,8.13
2023-05-14T23:53:15.355Z,9.07
2023-05-14T23:55:42.006Z,8.02
2023-05-14T23:58:08.756Z,7.72
